createdAt,value
2022-10-02T00:02:02.098Z,10.21
2022-10-02T00:04:34.828Z,10.34
2022-10-02T00:07:06.693Z,10.39
2022-10-02T00:09:37.551Z,10.42
2022-10-02T00:12:09.087Z,10.46
2022-10-02T00:14:40.829Z,10.54
2022-10-02T00:17:10.772Z,10.51
2022-10-02T00:19:39.948Z,10.48
2022-10-02T00:22:17.257Z,10.56
2022-10-02T00:24:49.494Z,10.57
2022-10-02T00:27:31.284Z,10.62
2022-10-02T00:30:01.390Z,10.52
2022-10-02T00:32:32.675Z,10.56
2022-10-02T00:35:30.244Z,10.50
2022-10-02T00:38:03.482Z,10.46
2022-10-02T00:40:41.584Z,10.53
2022-10-02T00:43:16.437Z,10.45
2022-10-02T00:46:17.654Z,10.55
2022-10-02T00:49:22.667Z,10.56
2022-10-02T00:51:59.036Z,10.53
2022-10-02T00:55:00.185Z,10.63
2022-10-02T00:57:36.588Z,10.54
2022-10-02T01:00:07.700Z,10.54
2022-10-02T01:02:58.787Z,10.55
2022-10-02T01:05:27.916Z,10.53
2022-10-02T01:07:57.884Z,10.52
2022-10-02T01:10:29.770Z,10.52
2022-10-02T01:13:00.413Z,10.60
2022-10-02T01:15:32.489Z,10.71
2022-10-02T01:18:03.610Z,10.68
2022-10-02T01:20:36.530Z,10.62
2022-10-02T01:23:13.584Z,10.52
2022-10-02T01:25:43.827Z,10.41
2022-10-02T01:28:12.727Z,10.41
2022-10-02T01:30:41.927Z,10.38
2022-10-02T01:33:10.439Z,10.39
2022-10-02T01:35:39.374Z,10.44
2022-10-02T01:38:09.043Z,10.46
2022-10-02T01:40:37.792Z,10.43
2022-10-02T01:43:09.242Z,10.49
2022-10-02T01:45:53.423Z,10.53
2022-10-02T01:48:26.318Z,10.53
2022-10-02T01:51:00.422Z,10.58
2022-10-02T01:53:30.721Z,10.59
2022-10-02T01:56:04.134Z,10.62
2022-10-02T01:58:37.822Z,10.59
2022-10-02T02:01:10.406Z,10.59
2022-10-02T02:03:40.902Z,10.65
2022-10-02T02:06:10.956Z,10.65
2022-10-02T02:09:01.743Z,10.69
2022-10-02T02:11:31.671Z,10.67
2022-10-02T02:14:02.999Z,10.68
2022-10-02T02:16:33.577Z,10.66
2022-10-02T02:19:05.068Z,10.60
2022-10-02T02:21:35.353Z,10.63
2022-10-02T02:24:05.740Z,10.55
2022-10-02T02:26:34.522Z,10.56
2022-10-02T02:29:06.713Z,10.60
2022-10-02T02:31:38.433Z,10.63
2022-10-02T02:34:09.097Z,10.62
2022-10-02T02:36:38.692Z,10.58
2022-10-02T02:39:09.319Z,10.60
2022-10-02T02:41:41.404Z,10.57
2022-10-02T02:44:14.401Z,10.54
2022-10-02T02:46:57.634Z,10.62
2022-10-02T02:49:28.248Z,10.44
2022-10-02T02:51:56.450Z,10.57
2022-10-02T02:54:25.937Z,10.58
2022-10-02T02:56:54.577Z,10.51
2022-10-02T02:59:24.501Z,10.55
2022-10-02T03:01:54.131Z,10.49
2022-10-02T03:04:22.372Z,10.49
2022-10-02T03:06:51.455Z,10.46
2022-10-02T03:09:20.793Z,10.36
2022-10-02T03:11:53.884Z,10.40
2022-10-02T03:14:51.193Z,10.39
2022-10-02T03:17:26.579Z,10.36
2022-10-02T03:19:58.104Z,10.35
2022-10-02T03:22:28.409Z,10.30
2022-10-02T03:24:59.160Z,10.41
2022-10-02T03:27:32.668Z,10.39
2022-10-02T03:30:05.882Z,10.42
2022-10-02T03:32:34.043Z,10.45
2022-10-02T03:35:02.602Z,10.41
2022-10-02T03:37:30.910Z,10.61
2022-10-02T03:39:59.478Z,10.59
2022-10-02T03:42:28.692Z,10.65
2022-10-02T03:44:58.384Z,10.62
2022-10-02T03:47:28.494Z,10.53
2022-10-02T03:49:56.794Z,10.59
2022-10-02T03:52:25.091Z,10.66
2022-10-02T03:54:54.766Z,10.66
2022-10-02T03:57:24.345Z,10.75
2022-10-02T03:59:55.657Z,10.79
2022-10-02T04:02:31.399Z,10.81
2022-10-02T04:05:03.393Z,10.74
2022-10-02T04:07:34.242Z,10.83
2022-10-02T04:10:11.137Z,10.79
2022-10-02T04:12:40.575Z,10.82
2022-10-02T04:15:15.754Z,10.81
2022-10-02T04:17:48.121Z,10.75
2022-10-02T04:20:18.209Z,10.80
2022-10-02T04:22:48.389Z,10.79
2022-10-02T04:25:18.498Z,10.71
2022-10-02T04:27:51.373Z,10.66
2022-10-02T04:30:20.154Z,10.75
2022-10-02T04:32:50.169Z,10.70
2022-10-02T04:35:19.102Z,10.60
2022-10-02T04:38:06.816Z,10.65
2022-10-02T04:40:43.625Z,10.69
2022-10-02T04:43:19.146Z,10.70
2022-10-02T04:45:57.510Z,10.70
2022-10-02T04:48:59.608Z,10.70
2022-10-02T04:51:39.779Z,10.75
2022-10-02T04:54:28.310Z,10.71
2022-10-02T04:57:02.715Z,10.83
2022-10-02T04:59:40.627Z,10.85
2022-10-02T05:02:17.741Z,10.78
2022-10-02T05:05:04.559Z,10.81
2022-10-02T05:08:15.025Z,10.84
2022-10-02T05:10:59.591Z,10.81
2022-10-02T05:13:37.698Z,10.84
2022-10-02T05:16:26.153Z,10.84
2022-10-02T05:19:03.083Z,10.86
2022-10-02T05:21:44.244Z,10.81
2022-10-02T05:24:21.333Z,10.76
2022-10-02T05:27:12.156Z,10.68
2022-10-02T05:29:51.721Z,10.75
2022-10-02T05:32:33.402Z,10.79
2022-10-02T05:35:11.351Z,10.81
2022-10-02T05:37:48.461Z,10.83
2022-10-02T05:40:20.525Z,10.85
2022-10-02T05:42:52.721Z,10.91
2022-10-02T05:45:24.383Z,10.96
2022-10-02T05:47:52.846Z,10.99
2022-10-02T05:50:23.078Z,11.01
2022-10-02T05:52:56.366Z,11.01
2022-10-02T05:55:26.608Z,11.02
2022-10-02T05:57:56.425Z,11.03
2022-10-02T06:00:31.465Z,10.98
2022-10-02T06:03:04.749Z,11.02
2022-10-02T06:05:39.974Z,10.98
2022-10-02T06:08:11.915Z,11.02
2022-10-02T06:10:44.112Z,11.00
2022-10-02T06:13:14.709Z,10.96
2022-10-02T06:15:46.010Z,11.01
2022-10-02T06:18:17.446Z,11.02
2022-10-02T06:20:48.009Z,11.00
2022-10-02T06:23:20.537Z,10.98
2022-10-02T06:25:49.797Z,11.01
2022-10-02T06:28:20.518Z,11.05
2022-10-02T06:30:50.963Z,10.96
2022-10-02T06:33:21.432Z,11.05
2022-10-02T06:36:15.199Z,11.04
2022-10-02T06:39:00.812Z,11.10
2022-10-02T06:41:30.689Z,11.10
2022-10-02T06:44:08.489Z,11.08
2022-10-02T06:46:40.803Z,11.16
2022-10-02T06:49:12.491Z,11.18
2022-10-02T06:51:49.428Z,11.30
2022-10-02T06:54:46.975Z,11.29
2022-10-02T06:57:35.231Z,11.35
2022-10-02T07:00:18.974Z,11.17
2022-10-02T07:03:01.991Z,11.26
2022-10-02T07:05:55.925Z,11.31
2022-10-02T07:08:29.750Z,11.27
2022-10-02T07:11:03.866Z,11.31
2022-10-02T07:13:35.958Z,11.31
2022-10-02T07:16:25.650Z,11.36
2022-10-02T07:19:02.904Z,11.30
2022-10-02T07:21:36.105Z,11.43
2022-10-02T07:24:12.860Z,11.40
2022-10-02T07:26:49.579Z,11.41
2022-10-02T07:29:27.070Z,11.46
2022-10-02T07:32:03.289Z,11.40
2022-10-02T07:34:37.124Z,11.41
2022-10-02T07:37:10.999Z,11.46
2022-10-02T07:39:49.005Z,11.42
2022-10-02T07:42:34.049Z,11.49
2022-10-02T07:45:27.927Z,11.56
2022-10-02T07:48:12.505Z,11.54
2022-10-02T07:50:44.965Z,11.48
2022-10-02T07:53:16.188Z,11.44
2022-10-02T07:55:45.120Z,11.51
2022-10-02T07:58:16.202Z,11.52
2022-10-02T08:00:47.005Z,11.54
2022-10-02T08:03:17.009Z,11.51
2022-10-02T08:05:46.876Z,11.47
2022-10-02T08:08:18.517Z,11.43
2022-10-02T08:10:50.601Z,11.46
2022-10-02T08:13:22.083Z,11.57
2022-10-02T08:15:52.247Z,11.54
2022-10-02T08:18:34.252Z,11.58
2022-10-02T08:21:03.767Z,11.52
2022-10-02T08:23:35.240Z,11.54
2022-10-02T08:26:06.701Z,11.58
2022-10-02T08:28:38.278Z,11.58
2022-10-02T08:31:10.224Z,11.45
2022-10-02T08:33:39.359Z,11.50
2022-10-02T08:36:25.175Z,11.48
2022-10-02T08:38:59.299Z,11.48
2022-10-02T08:41:51.517Z,11.49
2022-10-02T08:44:52.667Z,11.51
2022-10-02T08:48:07.044Z,11.54
2022-10-02T08:51:08.518Z,11.56
2022-10-02T08:53:53.759Z,11.59
2022-10-02T08:56:35.092Z,11.57
2022-10-02T08:59:44.891Z,11.53
2022-10-02T09:02:38.641Z,11.44
2022-10-02T09:05:44.897Z,11.44
2022-10-02T09:08:30.247Z,11.27
2022-10-02T09:11:26.763Z,11.34
2022-10-02T09:14:19.334Z,11.25
2022-10-02T09:17:03.341Z,11.25
2022-10-02T09:19:48.936Z,11.31
2022-10-02T09:22:32.207Z,11.27
2022-10-02T09:25:15.598Z,11.30
2022-10-02T09:28:37.743Z,11.32
2022-10-02T09:31:26.181Z,11.25
2022-10-02T09:34:25.320Z,11.33
2022-10-02T09:37:25.731Z,11.29
2022-10-02T09:40:16.950Z,11.31
2022-10-02T09:43:25.792Z,11.41
2022-10-02T09:46:20.340Z,11.43
2022-10-02T09:49:27.815Z,11.41
2022-10-02T09:52:19.358Z,11.44
2022-10-02T09:55:45.838Z,11.51
2022-10-02T09:58:46.491Z,11.55
2022-10-02T10:01:33.376Z,11.53
2022-10-02T10:05:04.971Z,11.57
2022-10-02T10:08:13.011Z,11.62
2022-10-02T10:11:02.725Z,11.58
2022-10-02T10:13:50.744Z,11.64
2022-10-02T10:16:45.407Z,11.56
2022-10-02T10:19:32.980Z,11.74
2022-10-02T10:22:39.511Z,11.70
2022-10-02T10:25:33.788Z,11.78
2022-10-02T10:28:11.773Z,11.71
2022-10-02T10:31:01.249Z,11.73
2022-10-02T10:34:04.220Z,11.68
2022-10-02T10:37:15.790Z,11.76
2022-10-02T10:40:16.637Z,11.76
2022-10-02T10:43:29.433Z,11.71
2022-10-02T10:46:12.512Z,11.73
2022-10-02T10:48:51.147Z,11.73
2022-10-02T10:51:29.955Z,11.68
2022-10-02T10:54:41.461Z,11.57
2022-10-02T10:57:15.361Z,11.65
2022-10-02T11:00:30.495Z,11.61
2022-10-02T11:03:23.747Z,11.69
2022-10-02T11:06:20.902Z,11.66
2022-10-02T11:09:26.606Z,11.64
2022-10-02T11:12:17.221Z,11.67
2022-10-02T11:14:55.349Z,11.49
2022-10-02T11:17:54.276Z,11.65
2022-10-02T11:20:58.834Z,11.69
2022-10-02T11:23:38.394Z,11.69
2022-10-02T11:26:22.926Z,11.76
2022-10-02T11:29:02.509Z,11.82
2022-10-02T11:31:43.337Z,11.78
2022-10-02T11:34:34.046Z,11.70
2022-10-02T11:37:09.983Z,11.80
2022-10-02T11:39:59.637Z,11.72
2022-10-02T11:42:54.211Z,11.71
2022-10-02T11:45:56.202Z,11.71
2022-10-02T11:49:09.642Z,11.66
2022-10-02T11:52:22.271Z,11.67
2022-10-02T11:54:56.444Z,11.61
2022-10-02T11:57:30.615Z,11.51
2022-10-02T12:00:05.931Z,11.56
2022-10-02T12:02:39.123Z,11.52
2022-10-02T12:05:21.948Z,11.62
2022-10-02T12:08:01.753Z,11.64
2022-10-02T12:10:37.008Z,11.62
2022-10-02T12:13:17.883Z,11.57
2022-10-02T12:15:48.015Z,11.63
2022-10-02T12:18:26.678Z,11.66
2022-10-02T12:21:22.106Z,11.61
2022-10-02T12:24:08.863Z,11.72
2022-10-02T12:27:03.980Z,11.73
2022-10-02T12:30:03.759Z,11.71
2022-10-02T12:32:48.583Z,11.79
2022-10-02T12:35:31.481Z,11.90
2022-10-02T12:38:07.458Z,11.88
2022-10-02T12:40:39.202Z,11.93
2022-10-02T12:43:40.657Z,11.97
2022-10-02T12:46:27.865Z,11.87
2022-10-02T12:49:07.301Z,12.01
2022-10-02T12:51:40.386Z,12.06
2022-10-02T12:54:48.693Z,12.01
2022-10-02T12:57:50.818Z,11.99
2022-10-02T13:00:19.826Z,11.96
2022-10-02T13:03:17.950Z,11.98
2022-10-02T13:06:26.605Z,11.93
2022-10-02T13:09:14.610Z,11.91
2022-10-02T13:11:55.598Z,11.85
2022-10-02T13:14:33.574Z,11.75
2022-10-02T13:17:12.234Z,11.61
2022-10-02T13:19:44.987Z,11.59
2022-10-02T13:22:16.347Z,11.53
2022-10-02T13:24:53.717Z,11.57
2022-10-02T13:27:31.373Z,11.61
2022-10-02T13:30:09.430Z,11.60
2022-10-02T13:33:06.143Z,11.71
2022-10-02T13:35:46.531Z,11.65
2022-10-02T13:38:29.310Z,11.69
2022-10-02T13:41:02.229Z,11.77
2022-10-02T13:43:57.739Z,11.78
2022-10-02T13:46:34.885Z,11.98
2022-10-02T13:49:08.940Z,11.90
2022-10-02T13:51:38.836Z,11.92
2022-10-02T13:54:33.421Z,11.93
2022-10-02T13:57:05.472Z,11.86
2022-10-02T13:59:46.145Z,11.81
2022-10-02T14:02:22.807Z,11.85
2022-10-02T14:04:55.482Z,11.81
2022-10-02T14:07:44.789Z,11.79
2022-10-02T14:10:21.255Z,11.80
2022-10-02T14:12:57.625Z,11.71
2022-10-02T14:15:46.835Z,11.85
2022-10-02T14:18:37.231Z,11.79
2022-10-02T14:21:10.427Z,11.76
2022-10-02T14:24:12.703Z,11.71
2022-10-02T14:26:50.589Z,11.68
2022-10-02T14:29:40.555Z,11.68
2022-10-02T14:32:30.576Z,11.70
2022-10-02T14:35:20.205Z,11.72
2022-10-02T14:38:06.699Z,11.68
2022-10-02T14:40:41.038Z,11.67
2022-10-02T14:43:18.749Z,11.60
2022-10-02T14:46:09.559Z,11.64
2022-10-02T14:48:49.558Z,11.66
2022-10-02T14:51:37.205Z,11.71
2022-10-02T14:54:23.969Z,11.77
2022-10-02T14:57:03.225Z,11.83
2022-10-02T15:00:09.663Z,11.87
2022-10-02T15:03:01.289Z,11.78
2022-10-02T15:05:53.702Z,11.86
2022-10-02T15:08:28.969Z,11.85
2022-10-02T15:10:58.072Z,11.80
2022-10-02T15:13:35.155Z,11.71
2022-10-02T15:16:27.483Z,11.55
2022-10-02T15:19:00.239Z,11.70
2022-10-02T15:21:31.699Z,11.64
2022-10-02T15:24:22.956Z,11.58
2022-10-02T15:26:51.814Z,11.54
2022-10-02T15:29:25.760Z,11.51
2022-10-02T15:32:34.821Z,11.51
2022-10-02T15:35:13.529Z,11.47
2022-10-02T15:37:46.554Z,11.47
2022-10-02T15:40:25.683Z,11.47
2022-10-02T15:42:58.664Z,11.47
2022-10-02T15:46:00.986Z,11.65
2022-10-02T15:48:43.680Z,11.73
2022-10-02T15:51:20.166Z,11.76
2022-10-02T15:53:53.777Z,11.88
2022-10-02T15:56:35.561Z,11.87
2022-10-02T15:59:12.859Z,11.97
2022-10-02T16:01:48.192Z,11.97
2022-10-02T16:04:23.332Z,12.16
2022-10-02T16:07:28.806Z,12.29
2022-10-02T16:10:08.513Z,12.16
2022-10-02T16:12:55.111Z,12.17
2022-10-02T16:15:25.441Z,12.19
2022-10-02T16:18:14.001Z,12.15
2022-10-02T16:20:53.443Z,11.95
2022-10-02T16:23:29.638Z,11.90
2022-10-02T16:26:23.703Z,11.97
2022-10-02T16:29:00.015Z,11.93
2022-10-02T16:31:38.332Z,11.88
2022-10-02T16:34:19.798Z,11.65
2022-10-02T16:36:53.195Z,11.78
2022-10-02T16:39:39.776Z,11.82
2022-10-02T16:42:21.952Z,11.80
2022-10-02T16:45:08.203Z,11.58
2022-10-02T16:47:49.878Z,11.51
2022-10-02T16:50:21.851Z,11.41
2022-10-02T16:52:55.502Z,11.29
2022-10-02T16:55:29.907Z,11.24
2022-10-02T16:58:17.833Z,11.14
2022-10-02T17:00:54.913Z,11.34
2022-10-02T17:03:28.744Z,11.26
2022-10-02T17:06:01.464Z,11.30
2022-10-02T17:08:31.610Z,11.49
2022-10-02T17:11:20.954Z,11.66
2022-10-02T17:14:04.262Z,11.64
2022-10-02T17:16:39.152Z,11.41
2022-10-02T17:19:34.408Z,11.41
2022-10-02T17:22:05.586Z,11.26
2022-10-02T17:24:38.460Z,11.14
2022-10-02T17:27:19.722Z,11.18
2022-10-02T17:29:53.720Z,11.21
2022-10-02T17:32:50.556Z,11.19
2022-10-02T17:35:32.052Z,11.21
2022-10-02T17:38:17.629Z,11.18
2022-10-02T17:40:51.008Z,11.27
2022-10-02T17:43:24.317Z,11.22
2022-10-02T17:46:00.612Z,11.44
2022-10-02T17:48:37.266Z,11.31
2022-10-02T17:51:47.563Z,11.35
2022-10-02T17:54:40.689Z,11.32
2022-10-02T17:57:25.290Z,11.53
2022-10-02T18:00:14.291Z,11.49
2022-10-02T18:03:16.635Z,11.42
2022-10-02T18:06:03.403Z,11.38
2022-10-02T18:09:12.862Z,11.35
2022-10-02T18:12:16.100Z,11.36
2022-10-02T18:15:08.445Z,11.49
2022-10-02T18:17:44.218Z,11.55
2022-10-02T18:20:17.060Z,11.52
2022-10-02T18:23:05.754Z,11.41
2022-10-02T18:25:45.046Z,11.36
2022-10-02T18:28:27.153Z,11.21
2022-10-02T18:31:00.061Z,11.16
2022-10-02T18:34:06.797Z,11.13
2022-10-02T18:36:52.008Z,11.00
2022-10-02T18:39:29.992Z,11.07
2022-10-02T18:42:16.432Z,10.97
2022-10-02T18:44:51.405Z,10.95
2022-10-02T18:47:31.740Z,10.87
2022-10-02T18:50:08.345Z,10.82
2022-10-02T18:53:01.457Z,10.83
2022-10-02T18:55:57.958Z,10.79
2022-10-02T18:58:43.456Z,10.79
2022-10-02T19:01:37.419Z,10.75
2022-10-02T19:04:17.525Z,10.78
2022-10-02T19:06:49.680Z,10.69
2022-10-02T19:09:21.940Z,10.67
2022-10-02T19:11:58.262Z,10.70
2022-10-02T19:14:34.197Z,10.68
2022-10-02T19:17:03.994Z,10.64
2022-10-02T19:19:35.601Z,10.56
2022-10-02T19:22:11.259Z,10.66
2022-10-02T19:24:40.518Z,10.61
2022-10-02T19:27:12.434Z,10.63
2022-10-02T19:29:42.386Z,10.70
2022-10-02T19:32:15.060Z,10.71
2022-10-02T19:34:45.348Z,10.63
2022-10-02T19:37:18.587Z,10.66
2022-10-02T19:39:51.525Z,10.54
2022-10-02T19:42:26.497Z,10.52
2022-10-02T19:44:57.255Z,10.47
2022-10-02T19:47:29.532Z,10.25
2022-10-02T19:49:59.143Z,10.19
2022-10-02T19:52:40.198Z,10.20
2022-10-02T19:55:20.569Z,10.18
2022-10-02T19:57:50.684Z,10.08
2022-10-02T20:00:20.101Z,10.07
2022-10-02T20:02:49.662Z,10.05
2022-10-02T20:05:24.065Z,9.93
2022-10-02T20:07:54.028Z,9.92
2022-10-02T20:10:26.916Z,9.89
2022-10-02T20:13:00.307Z,9.88
2022-10-02T20:15:47.796Z,9.92
2022-10-02T20:18:16.423Z,9.87
2022-10-02T20:20:46.160Z,9.74
2022-10-02T20:23:17.866Z,9.73
2022-10-02T20:25:48.335Z,9.77
2022-10-02T20:28:21.248Z,9.83
2022-10-02T20:30:51.700Z,9.90
2022-10-02T20:33:24.818Z,9.83
2022-10-02T20:35:56.806Z,9.88
2022-10-02T20:38:33.215Z,9.87
2022-10-02T20:41:04.469Z,9.94
2022-10-02T20:43:37.558Z,10.02
2022-10-02T20:46:15.481Z,9.99
2022-10-02T20:49:14.309Z,9.93
2022-10-02T20:52:02.214Z,9.96
2022-10-02T20:54:44.538Z,9.90
2022-10-02T20:58:02.127Z,9.85
2022-10-02T21:00:35.231Z,9.81
2022-10-02T21:03:28.416Z,9.74
2022-10-02T21:06:15.419Z,9.72
2022-10-02T21:09:10.679Z,9.59
2022-10-02T21:11:56.640Z,9.60
2022-10-02T21:14:55.546Z,9.62
2022-10-02T21:18:05.267Z,9.60
2022-10-02T21:21:19.402Z,9.52
2022-10-02T21:24:21.144Z,9.54
2022-10-02T21:27:23.291Z,9.45
2022-10-02T21:30:05.051Z,9.40
2022-10-02T21:33:10.560Z,9.36
2022-10-02T21:35:49.356Z,9.28
2022-10-02T21:38:47.598Z,9.33
2022-10-02T21:41:41.664Z,9.24
2022-10-02T21:44:51.895Z,9.21
2022-10-02T21:48:20.222Z,9.18
2022-10-02T21:51:31.913Z,9.12
2022-10-02T21:54:26.225Z,9.11
2022-10-02T21:57:07.378Z,9.02
2022-10-02T22:00:13.195Z,9.01
2022-10-02T22:03:18.772Z,9.01
2022-10-02T22:06:18.480Z,8.99
2022-10-02T22:09:15.368Z,9.02
2022-10-02T22:11:50.275Z,9.05
2022-10-02T22:14:23.669Z,9.02
2022-10-02T22:16:56.413Z,9.05
2022-10-02T22:19:48.029Z,8.97
2022-10-02T22:22:26.212Z,8.93
2022-10-02T22:25:04.207Z,9.04
2022-10-02T22:27:56.142Z,8.97
2022-10-02T22:30:27.477Z,8.84
2022-10-02T22:33:15.317Z,8.82
2022-10-02T22:36:04.134Z,8.84
2022-10-02T22:38:36.764Z,8.83
2022-10-02T22:41:08.573Z,8.85
2022-10-02T22:43:42.921Z,8.89
2022-10-02T22:46:22.295Z,8.80
2022-10-02T22:48:55.635Z,8.88
2022-10-02T22:51:27.643Z,8.98
2022-10-02T22:54:03.080Z,9.07
2022-10-02T22:56:33.631Z,9.13
2022-10-02T22:59:08.381Z,9.16
2022-10-02T23:01:42.362Z,9.07
2022-10-02T23:04:24.015Z,9.10
2022-10-02T23:06:55.377Z,8.92
2022-10-02T23:09:28.669Z,8.96
2022-10-02T23:12:02.304Z,8.93
2022-10-02T23:14:33.194Z,8.87
2022-10-02T23:17:03.896Z,8.75
2022-10-02T23:19:42.034Z,8.75
2022-10-02T23:22:12.982Z,8.76
2022-10-02T23:24:47.833Z,8.72
2022-10-02T23:27:18.563Z,8.66
2022-10-02T23:29:51.812Z,8.58
2022-10-02T23:32:27.498Z,8.72
2022-10-02T23:35:01.810Z,8.59
2022-10-02T23:37:36.470Z,8.57
2022-10-02T23:40:15.792Z,8.63
2022-10-02T23:42:46.933Z,8.52
2022-10-02T23:45:19.722Z,8.65
2022-10-02T23:47:56.083Z,8.62
2022-10-02T23:50:25.667Z,8.56
2022-10-02T23:53:14.650Z,8.58
2022-10-02T23:55:53.672Z,8.59
2022-10-02T23:58:34.728Z,8.56
